Time,TemperatureF,DewpointF,PressureIn,WindDirection,WindDirectionDegrees,WindSpeedMPH,WindSpeedGustMPH,Humidity,HourlyPrecipIn,Conditions,Clouds,dailyrainin,SolarRadiationWatts/m^2,SoftwareType,DateUTC
2013-03-15 00:02:00,54.0,24.0,-100.00,NW,311,7.0,9.0,31,0.00,,,0.00,0.000000,,2013-03-15 06:02:00,
2013-03-15 00:12:00,54.0,24.0,-100.00,NW,311,7.0,9.0,31,0.00,,,0.00,0.000000,,2013-03-15 06:12:00,
2013-03-15 00:33:00,54.0,24.0,-100.00,NNW,331,6.0,9.0,31,0.00,,,0.00,0.000000,,2013-03-15 06:33:00,
2013-03-15 00:42:00,54.0,24.0,-100.00,NNW,331,6.0,9.0,31,0.00,,,0.00,0.000000,,2013-03-15 06:42:00,
2013-03-15 00:53:00,54.0,24.0,-100.00,NNW,331,6.0,9.0,31,0.00,,,0.00,0.000000,,2013-03-15 06:53:00,
2013-03-15 01:02:00,54.0,24.0,-100.00,NNW,331,6.0,9.0,31,0.00,,,0.00,0.000000,,2013-03-15 07:02:00,
2013-03-15 01:12:00,54.0,24.0,-100.00,NNW,331,6.0,9.0,31,0.00,,,0.00,0.000000,,2013-03-15 07:12:00,
2013-03-15 01:42:00,50.0,23.0,-100.00,NNW,330,6.0,8.0,34,0.00,,,0.00,0.000000,,2013-03-15 07:42:00,
2013-03-15 01:52:00,50.0,23.0,-100.00,NNW,330,6.0,8.0,34,0.00,,,0.00,0.000000,,2013-03-15 07:52:00,
2013-03-15 02:02:00,50.0,23.0,-100.00,NNW,330,6.0,8.0,34,0.00,,,0.00,0.000000,,2013-03-15 08:02:00,
2013-03-15 02:12:00,50.0,23.0,-100.00,NNW,330,6.0,8.0,34,0.00,,,0.00,0.000000,,2013-03-15 08:12:00,
2013-03-15 02:42:00,49.0,23.0,-100.00,NW,308,7.0,8.0,36,0.00,,,0.00,0.000000,,2013-03-15 08:42:00,
2013-03-15 02:52:00,49.0,23.0,-100.00,NW,308,7.0,8.0,36,0.00,,,0.00,0.000000,,2013-03-15 08:52:00,
2013-03-15 03:02:00,49.0,23.0,-100.00,NW,308,7.0,8.0,36,0.00,,,0.00,0.000000,,2013-03-15 09:02:00,
2013-03-15 03:12:00,49.0,23.0,-100.00,NW,308,7.0,8.0,36,0.00,,,0.00,0.000000,,2013-03-15 09:12:00,
2013-03-15 03:33:00,49.0,23.0,-100.00,NW,320,6.0,8.0,35,0.00,,,-99.99,0.000000,,2013-03-15 09:33:00,
2013-03-15 03:43:00,49.0,23.0,-100.00,NW,320,6.0,8.0,35,0.00,,,-99.99,0.000000,,2013-03-15 09:43:00,
2013-03-15 03:53:00,49.0,23.0,-100.00,NW,320,6.0,8.0,35,0.00,,,-99.99,0.000000,,2013-03-15 09:53:00,
2013-03-15 04:03:00,49.0,23.0,-100.00,NW,320,6.0,8.0,35,0.00,,,-99.99,0.000000,,2013-03-15 10:03:00,
2013-03-15 04:12:00,49.0,23.0,-100.00,NW,320,6.0,8.0,35,0.00,,,-99.99,0.000000,,2013-03-15 10:12:00,
2013-03-15 04:33:00,50.0,23.0,-100.00,NW,310,7.0,9.0,35,0.00,,,0.00,0.000000,,2013-03-15 10:33:00,
2013-03-15 04:43:00,50.0,23.0,-100.00,NW,310,7.0,9.0,35,0.00,,,0.00,0.000000,,2013-03-15 10:43:00,
2013-03-15 04:52:00,50.0,23.0,-100.00,NW,310,7.0,9.0,35,0.00,,,0.00,0.000000,,2013-03-15 10:52:00,
2013-03-15 05:03:00,50.0,23.0,-100.00,NW,310,7.0,9.0,35,0.00,,,0.00,0.000000,,2013-03-15 11:03:00,
2013-03-15 05:12:00,50.0,23.0,-100.00,NW,310,7.0,9.0,35,0.00,,,0.00,0.000000,,2013-03-15 11:12:00,
2013-03-15 05:32:00,48.0,23.0,-100.00,NNW,327,8.0,9.0,37,0.00,,,0.00,0.000000,,2013-03-15 11:32:00,
2013-03-15 05:42:00,48.0,23.0,-100.00,NNW,327,8.0,9.0,37,0.00,,,0.00,0.000000,,2013-03-15 11:42:00,
2013-03-15 05:52:00,48.0,23.0,-100.00,NNW,327,8.0,9.0,37,0.00,,,0.00,0.000000,,2013-03-15 11:52:00,
2013-03-15 06:02:00,48.0,23.0,-100.00,NNW,327,8.0,9.0,37,0.00,,,0.00,0.000000,,2013-03-15 12:02:00,
2013-03-15 06:12:00,48.0,23.0,-100.00,NNW,327,8.0,9.0,37,0.00,,,0.00,0.000000,,2013-03-15 12:12:00,
2013-03-15 06:42:00,46.0,24.0,-100.00,NW,312,3.0,8.0,41,0.00,,,0.00,0.000000,,2013-03-15 12:42:00,
2013-03-15 06:52:00,46.0,24.0,-100.00,NW,312,3.0,8.0,41,0.00,,,0.00,0.000000,,2013-03-15 12:52:00,
2013-03-15 07:02:00,46.0,24.0,-100.00,NW,312,3.0,8.0,41,0.00,,,0.00,0.000000,,2013-03-15 13:02:00,
2013-03-15 07:12:00,46.0,24.0,-100.00,NW,312,3.0,8.0,41,0.00,,,0.00,0.000000,,2013-03-15 13:12:00,
2013-03-15 07:42:00,47.0,23.0,-100.00,NW,324,1.0,6.0,39,0.00,,,0.00,0.000000,,2013-03-15 13:42:00,
2013-03-15 07:52:00,47.0,23.0,-100.00,NW,324,1.0,6.0,39,0.00,,,0.00,0.000000,,2013-03-15 13:52:00,
2013-03-15 08:02:00,47.0,23.0,-100.00,NW,324,1.0,6.0,39,0.00,,,0.00,0.000000,,2013-03-15 14:02:00,
2013-03-15 08:12:00,47.0,23.0,-100.00,NW,324,1.0,6.0,39,0.00,,,0.00,0.000000,,2013-03-15 14:12:00,
2013-03-15 08:42:00,50.0,24.0,-100.00,North,353,5.0,8.0,36,0.00,,,0.00,24.000000,,2013-03-15 14:42:00,
2013-03-15 08:53:00,50.0,24.0,-100.00,North,353,5.0,8.0,36,0.00,,,0.00,24.000000,,2013-03-15 14:53:00,
2013-03-15 09:02:00,50.0,24.0,-100.00,North,353,5.0,8.0,36,0.00,,,0.00,24.000000,,2013-03-15 15:02:00,
2013-03-15 09:13:00,50.0,24.0,-100.00,North,353,5.0,8.0,36,0.00,,,0.00,24.000000,,2013-03-15 15:13:00,
2013-03-15 09:43:00,60.0,27.0,-100.00,West,268,1.0,6.0,28,0.00,,,0.00,198.000000,,2013-03-15 15:43:00,
2013-03-15 09:53:00,60.0,27.0,-100.00,West,268,1.0,6.0,28,0.00,,,0.00,198.000000,,2013-03-15 15:53:00,
2013-03-15 10:03:00,60.0,27.0,-100.00,West,268,1.0,6.0,28,0.00,,,0.00,198.000000,,2013-03-15 16:03:00,
2013-03-15 10:12:00,60.0,27.0,-100.00,West,268,1.0,6.0,28,0.00,,,0.00,198.000000,,2013-03-15 16:12:00,
2013-03-15 10:32:00,62.0,25.0,-100.00,East,91,4.0,12.0,24,0.00,,,0.00,330.000000,,2013-03-15 16:32:00,
2013-03-15 10:42:00,62.0,25.0,-100.00,East,91,4.0,12.0,24,0.00,,,0.00,330.000000,,2013-03-15 16:42:00,
2013-03-15 10:52:00,62.0,25.0,-100.00,East,91,4.0,12.0,24,0.00,,,0.00,330.000000,,2013-03-15 16:52:00,
2013-03-15 11:02:00,62.0,25.0,-100.00,East,91,4.0,12.0,24,0.00,,,0.00,330.000000,,2013-03-15 17:02:00,
2013-03-15 11:12:00,62.0,25.0,-100.00,East,91,4.0,12.0,24,0.00,,,0.00,330.000000,,2013-03-15 17:12:00,
2013-03-15 11:43:00,68.0,19.0,-100.00,NNW,337,19.0,29.0,15,0.00,,,0.00,513.000000,,2013-03-15 17:43:00,
2013-03-15 11:53:00,68.0,19.0,-100.00,NNW,337,19.0,29.0,15,0.00,,,0.00,513.000000,,2013-03-15 17:53:00,
2013-03-15 12:02:00,68.0,19.0,-100.00,NNW,337,19.0,29.0,15,0.00,,,0.00,513.000000,,2013-03-15 18:02:00,
2013-03-15 12:12:00,68.0,19.0,-100.00,NNW,337,19.0,29.0,15,0.00,,,0.00,513.000000,,2013-03-15 18:12:00,
2013-03-15 12:42:00,66.0,20.0,-100.00,North,349,11.0,27.0,17,0.00,,,0.00,501.000000,,2013-03-15 18:42:00,
2013-03-15 12:52:00,66.0,20.0,-100.00,North,349,11.0,27.0,17,0.00,,,0.00,501.000000,,2013-03-15 18:52:00,
2013-03-15 13:02:00,66.0,20.0,-100.00,North,349,11.0,27.0,17,0.00,,,0.00,501.000000,,2013-03-15 19:02:00,
2013-03-15 13:12:00,66.0,20.0,-100.00,North,349,11.0,27.0,17,0.00,,,0.00,501.000000,,2013-03-15 19:12:00,
2013-03-15 13:42:00,67.0,23.0,-100.00,NE,41,6.0,17.0,19,0.00,,,-99.99,597.000000,,2013-03-15 19:42:00,
2013-03-15 13:52:00,67.0,23.0,-100.00,NE,41,6.0,17.0,19,0.00,,,-99.99,597.000000,,2013-03-15 19:52:00,
2013-03-15 14:02:00,67.0,23.0,-100.00,NE,41,6.0,17.0,19,0.00,,,-99.99,597.000000,,2013-03-15 20:02:00,
2013-03-15 14:12:00,67.0,23.0,-100.00,NE,41,6.0,17.0,19,0.00,,,-99.99,597.000000,,2013-03-15 20:12:00,
2013-03-15 14:42:00,67.0,19.0,-100.00,NNW,332,14.0,23.0,16,0.00,,,0.00,439.000000,,2013-03-15 20:42:00,
2013-03-15 14:52:00,67.0,19.0,-100.00,NNW,332,14.0,23.0,16,0.00,,,0.00,439.000000,,2013-03-15 20:52:00,
2013-03-15 15:02:00,67.0,19.0,-100.00,NNW,332,14.0,23.0,16,0.00,,,0.00,439.000000,,2013-03-15 21:02:00,
2013-03-15 15:12:00,67.0,19.0,-100.00,NNW,332,14.0,23.0,16,0.00,,,0.00,439.000000,,2013-03-15 21:12:00,
2013-03-15 15:43:00,68.0,19.0,-100.00,NW,316,13.0,23.0,15,0.00,,,0.00,590.000000,,2013-03-15 21:43:00,
2013-03-15 15:53:00,68.0,19.0,-100.00,NW,316,13.0,23.0,15,0.00,,,0.00,590.000000,,2013-03-15 21:53:00,
2013-03-15 16:03:00,68.0,19.0,-100.00,NW,316,13.0,23.0,15,0.00,,,0.00,590.000000,,2013-03-15 22:03:00,
2013-03-15 16:13:00,68.0,19.0,-100.00,NW,316,13.0,23.0,15,0.00,,,0.00,590.000000,,2013-03-15 22:13:00,
2013-03-15 16:42:00,68.0,19.0,-100.00,NNW,327,11.0,21.0,15,0.00,,,0.00,488.000000,,2013-03-15 22:42:00,
2013-03-15 16:53:00,68.0,19.0,-100.00,NNW,327,11.0,21.0,15,0.00,,,0.00,488.000000,,2013-03-15 22:53:00,
2013-03-15 17:02:00,68.0,19.0,-100.00,NNW,327,11.0,21.0,15,0.00,,,0.00,488.000000,,2013-03-15 23:02:00,
2013-03-15 17:12:00,68.0,19.0,-100.00,NNW,327,11.0,21.0,15,0.00,,,0.00,488.000000,,2013-03-15 23:12:00,
2013-03-15 17:42:00,66.0,20.0,-100.00,WNW,295,11.0,22.0,17,0.00,,,0.00,370.000000,,2013-03-15 23:42:00,
2013-03-15 17:53:00,66.0,20.0,-100.00,WNW,295,11.0,22.0,17,0.00,,,0.00,370.000000,,2013-03-15 23:53:00,
2013-03-15 18:02:00,66.0,20.0,-100.00,WNW,295,11.0,22.0,17,0.00,,,0.00,370.000000,,2013-03-16 00:02:00,
2013-03-15 18:12:00,66.0,20.0,-100.00,WNW,295,11.0,22.0,17,0.00,,,0.00,370.000000,,2013-03-16 00:12:00,
2013-03-15 18:42:00,59.0,23.0,-100.00,North,349,12.0,22.0,25,0.00,,,0.00,154.000000,,2013-03-16 00:42:00,
2013-03-15 18:52:00,59.0,23.0,-100.00,North,349,12.0,22.0,25,0.00,,,0.00,154.000000,,2013-03-16 00:52:00,
2013-03-15 19:02:00,59.0,23.0,-100.00,North,349,12.0,22.0,25,0.00,,,0.00,154.000000,,2013-03-16 01:02:00,
2013-03-15 19:12:00,59.0,23.0,-100.00,North,349,12.0,22.0,25,0.00,,,0.00,154.000000,,2013-03-16 01:12:00,
2013-03-15 19:32:00,57.0,24.0,-100.00,NNW,347,8.0,20.0,28,0.00,,,0.00,14.000000,,2013-03-16 01:32:00,
2013-03-15 19:42:00,57.0,24.0,-100.00,NNW,347,8.0,20.0,28,0.00,,,0.00,14.000000,,2013-03-16 01:42:00,
2013-03-15 19:53:00,57.0,24.0,-100.00,NNW,347,8.0,20.0,28,0.00,,,0.00,14.000000,,2013-03-16 01:53:00,
2013-03-15 20:02:00,57.0,24.0,-100.00,NNW,347,8.0,20.0,28,0.00,,,0.00,14.000000,,2013-03-16 02:02:00,
2013-03-15 20:12:00,57.0,24.0,-100.00,NNW,347,8.0,20.0,28,0.00,,,0.00,14.000000,,2013-03-16 02:12:00,
2013-03-15 20:43:00,51.0,28.0,-100.00,NNE,24,17.0,28.0,40,0.00,,,0.00,0.000000,,2013-03-16 02:43:00,
2013-03-15 20:52:00,51.0,28.0,-100.00,NNE,24,17.0,28.0,40,0.00,,,0.00,0.000000,,2013-03-16 02:52:00,
2013-03-15 21:02:00,51.0,28.0,-100.00,NNE,24,17.0,28.0,40,0.00,,,0.00,0.000000,,2013-03-16 03:02:00,
2013-03-15 21:12:00,51.0,28.0,-100.00,NNE,24,17.0,28.0,40,0.00,,,0.00,0.000000,,2013-03-16 03:12:00,
2013-03-15 21:43:00,48.0,28.0,-100.00,NNE,21,14.0,22.0,46,0.00,,,0.00,0.000000,,2013-03-16 03:43:00,
2013-03-15 21:53:00,48.0,28.0,-100.00,NNE,21,14.0,22.0,46,0.00,,,0.00,0.000000,,2013-03-16 03:53:00,
2013-03-15 22:02:00,48.0,28.0,-100.00,NNE,21,14.0,22.0,46,0.00,,,0.00,0.000000,,2013-03-16 04:02:00,
2013-03-15 22:12:00,48.0,28.0,-100.00,NNE,21,14.0,22.0,46,0.00,,,0.00,0.000000,,2013-03-16 04:12:00,
2013-03-15 22:33:00,46.0,26.0,-100.00,NNE,29,8.0,21.0,45,0.00,,,0.00,0.000000,,2013-03-16 04:33:00,
2013-03-15 22:43:00,46.0,26.0,-100.00,NNE,29,8.0,21.0,45,0.00,,,0.00,0.000000,,2013-03-16 04:43:00,
2013-03-15 22:53:00,46.0,26.0,-100.00,NNE,29,8.0,21.0,45,0.00,,,0.00,0.000000,,2013-03-16 04:53:00,
2013-03-15 23:02:00,46.0,26.0,-100.00,NNE,29,8.0,21.0,45,0.00,,,0.00,0.000000,,2013-03-16 05:02:00,
2013-03-15 23:12:00,46.0,26.0,-100.00,NNE,29,8.0,21.0,45,0.00,,,0.00,0.000000,,2013-03-16 05:12:00,
2013-03-15 23:32:00,39.0,27.0,-100.00,NNE,30,10.0,19.0,63,0.00,,,0.00,0.000000,,2013-03-16 05:32:00,
2013-03-15 23:42:00,39.0,27.0,-100.00,NNE,30,10.0,19.0,63,0.00,,,0.00,0.000000,,2013-03-16 05:42:00,
2013-03-15 23:53:00,39.0,27.0,-100.00,NNE,30,10.0,19.0,63,0.00,,,0.00,0.000000,,2013-03-16 05:53:00,